Station: Cape Naturaliste  

  Atmospheric Gas Attenuation - ITU Rec 676-11   ----------------- dB/100km -----------------
Date Time Temp RH % AH g/m3 Dew Point Wind Direction Speed kph Gust kph Barometer mB Rainfall Since 9am 24GHz 47GHz 76GHz 122GHz 134GHz 241GHz
08/05 09:30 17.1 72 10.48 12 35 43 1030.3 0 23.4 28.6 46.5 122.0 120.5 416.0
08/05 09:20 17.3 72 10.61 12.2 32 37 1030.3 0 23.7 28.8 46.9 123.2 121.9 421.1
08/05 09:10 17.1 72 10.48 12 32 35 1030.4 0 23.4 28.6 46.5 122.1 120.5 416.0
08/05 09:00 16.8 72 10.29 11.7 32 43 1030.5 0 23.0 28.4 45.9 120.4 118.4 408.6
08/05 08:50 16.5 73 10.25 11.6 33 37 1030.4 0 22.9 28.4 45.9 120.4 118.3 408.2
08/05 08:40 16.3 73 10.13 11.5 37 41 1030.3 0 22.7 28.3 45.5 119.4 116.9 403.5
08/05 08:30 16.3 74 10.27 11.7 32 43 1030.3 0 23.0 28.5 46.1 121.0 118.9 410.2
08/05 08:20 16.1 75 10.28 11.7 33 41 1030.3 0 23.0 28.6 46.2 121.4 119.3 411.7
08/05 08:10 15.9 75 10.16 11.5 35 43 1030.2 0 22.8 28.5 45.8 120.3 118.0 407.0
08/05 08:00 15.7 75 10.03 11.3 32 43 1030.1 0 22.5 28.3 45.4 119.2 116.5 401.8
08/05 07:50 15.6 77 10.24 11.6 33 39 1030.1 0 23.0 28.7 46.3 121.7 119.5 412.4
08/05 07:40 15.4 77 10.12 11.4 30 35 1030 0 22.7 28.6 45.9 120.6 118.2 407.6
08/05 07:30 15.2 77 9.99 11.2 32 41 1030 0 22.5 28.4 45.5 119.5 116.7 402.4
08/05 07:20 15 78 10 11.2 32 35 1029.9 0 22.5 28.5 45.7 119.9 117.1 403.9
08/05 07:10 14.8 78 9.88 11 33 39 1029.8 0 22.2 28.3 45.3 118.9 115.7 399.1
08/05 07:00 14.6 77 9.64 10.6 33 43 1029.7 0 21.7 28.0 44.4 116.5 112.7 388.5
08/05 06:50 14.6 79 9.89 11 33 37 1029.7 0 22.3 28.4 45.4 119.3 116.2 400.6
08/05 06:40 14.6 78 9.76 10.8 32 37 1029.7 0 22.0 28.2 44.9 117.8 114.4 394.3
08/05 06:30 14.5 79 9.83 10.9 30 39 1029.7 0 22.2 28.3 45.2 118.7 115.5 398.2
08/05 06:20 14.4 78 9.64 10.6 32 35 1029.7 0 21.8 28.1 44.5 116.8 113.0 389.5
08/05 06:10 14.5 78 9.7 10.7 33 41 1029.6 0 21.9 28.1 44.7 117.3 113.7 391.9
08/05 06:00 14.6 78 9.76 10.8 32 43 1029.5 0 22.0 28.2 44.9 117.8 114.4 394.2
08/05 05:50 14.5 77 9.58 10.5 33 39 1029.6 0 21.6 27.9 44.2 115.9 112.0 386.1
08/05 05:40 14.5 77 9.58 10.5 28 35 1029.7 0 21.6 27.9 44.2 115.9 112.0 386.2
08/05 05:30 14.5 77 9.58 10.5 32 39 1029.6 0 21.6 27.9 44.2 115.9 112.0 386.1
08/05 05:20 14.3 78 9.58 10.5 33 39 1029.7 0 21.6 28.0 44.3 116.2 112.3 387.2
08/05 05:10 14.3 78 9.58 10.5 28 33 1029.6 0 21.6 28.0 44.3 116.2 112.3 387.1
08/05 05:00 14.3 77 9.46 10.3 32 41 1029.5 0 21.4 27.8 43.8 114.9 110.7 381.3
08/05 04:50 14.1 77 9.35 10.1 33 39 1029.4 0 21.2 27.7 43.4 113.9 109.4 377.0
08/05 04:40 14.3 77 9.46 10.3 35 41 1029.4 0 21.4 27.8 43.8 114.9 110.7 381.3
08/05 04:30 14.4 77 9.52 10.4 33 43 1029.4 0 21.5 27.8 44.0 115.4 111.3 383.7
08/05 04:20 14.3 76 9.34 10.1 28 33 1029.4 0 21.1 27.6 43.3 113.5 109.0 375.6
08/05 04:10 14.4 76 9.39 10.2 30 35 1029.4 0 21.2 27.6 43.4 114.0 109.6 377.5
08/05 04:00 14.5 75 9.33 10.1 32 44 1029.4 0 21.1 27.5 43.1 113.1 108.6 374.1
08/05 03:50 14.6 75 9.39 10.2 30 37 1029.4 0 21.2 27.6 43.3 113.7 109.3 376.5
08/05 03:40 14.7 74 9.32 10.1 32 41 1029.3 0 21.1 27.4 43.0 112.7 108.2 372.7
08/05 03:30 14.9 74 9.43 10.3 32 41 1029.3 0 21.3 27.5 43.3 113.7 109.4 376.9
08/05 03:20 14.9 74 9.43 10.3 30 35 1029.3 0 21.3 27.5 43.3 113.7 109.4 376.9
08/05 03:10 15 74 9.49 10.4 33 39 1029.3 0 21.4 27.6 43.5 114.2 110.1 379.3
08/05 03:00 14.9 73 9.3 10.1 32 46 1029.3 0 21.0 27.3 42.8 112.2 107.6 370.8
08/05 02:50 15.2 73 9.48 10.4 33 37 1029.3 0 21.4 27.5 43.4 113.8 109.6 377.9
08/05 02:40 15.1 72 9.29 10.1 33 37 1029.3 0 21.0 27.2 42.6 111.8 107.2 369.4
08/05 02:30 15.3 72 9.4 10.3 32 43 1029.2 0 21.2 27.4 43.0 112.7 108.4 373.6
08/05 02:20 15.3 72 9.4 10.3 32 35 1029.2 0 21.2 27.4 43.0 112.7 108.4 373.6
08/05 02:10 15.2 72 9.35 10.2 32 39 1029.1 0 21.1 27.3 42.8 112.3 107.9 371.7
08/05 02:00 15.4 71 9.33 10.2 32 41 1029.2 0 21.0 27.2 42.6 111.8 107.3 369.8
08/05 01:50 15.5 69 9.12 9.8 37 41 1029.3 0 20.6 26.8 41.7 109.4 104.4 359.6
08/05 01:40 15.5 70 9.25 10.1 33 39 1029.3 0 20.9 27.1 42.3 110.8 106.1 365.6
08/05 01:30 15.6 70 9.31 10.2 32 44 1029.4 0 21.0 27.1 42.5 111.4 106.8 368.0
08/05 01:20 15.6 70 9.31 10.2 26 33 1029.4 0 21.0 27.1 42.5 111.4 106.8 368.0
08/05 01:10 15.7 69 9.23 10 33 39 1029.5 0 20.8 27.0 42.1 110.4 105.6 363.8
08/05 01:00 15.8 68 9.15 9.9 32 43 1029.5 0 20.6 26.8 41.7 109.4 104.4 359.7
08/05 00:50 15.8 67 9.02 9.7 32 35 1029.5 0 20.4 26.6 41.2 108.0 102.7 353.6
08/05 00:40 15.9 66 8.94 9.6 30 37 1029.5 0 20.2 26.4 40.8 107.0 101.5 349.5
08/05 00:30 15.9 67 9.07 9.8 30 39 1029.4 0 20.5 26.6 41.3 108.4 103.2 355.5
08/05 00:20 16.1 68 9.32 10.2 28 33 1029.5 0 21.0 27.0 42.2 110.8 106.3 366.2
08/05 00:10 15.9 68 9.21 10 33 39 1029.5 0 20.8 26.9 41.9 109.9 105.1 362.0
08/05 00:00 16 67 9.13 9.9 32 43 1029.5 0 20.6 26.7 41.5 108.9 103.9 357.8
07/05 23:50 16.1 66 9.05 9.8 32 39 1029.4 0 20.4 26.6 41.2 107.9 102.7 353.7
07/05 23:40 16.2 66 9.1 9.8 33 37 1029.5 0 20.5 26.6 41.3 108.3 103.2 355.5
07/05 23:30 16.1 67 9.18 10 32 43 1029.4 0 20.7 26.8 41.7 109.3 104.4 359.7
07/05 23:20 16.2 66 9.1 9.8 32 41 1029.5 0 20.5 26.6 41.3 108.3 103.2 355.5
07/05 23:10 16.4 65 9.07 9.8 32 41 1029.6 0 20.4 26.5 41.1 107.7 102.6 353.3
07/05 23:00 16.6 68 9.61 10.7 32 41 1029.6 0 21.6 27.3 43.2 113.2 109.4 377.3
07/05 22:50 16.6 66 9.32 10.2 32 39 1029.6 0 21.0 26.8 42.0 110.1 105.6 363.9
07/05 22:40 16.6 69 9.75 10.9 33 39 1029.6 0 21.9 27.5 43.7 114.7 111.3 383.9
07/05 22:30 16.5 71 9.97 11.2 32 41 1029.6 0 22.3 27.9 44.7 117.3 114.4 394.7
07/05 22:20 16.5 69 9.69 10.8 28 33 1029.6 0 21.8 27.5 43.5 114.2 110.7 381.5
07/05 22:10 16.6 67 9.46 10.5 33 35 1029.5 0 21.3 27.1 42.5 111.6 107.4 370.3
07/05 22:00 16.5 71 9.97 11.2 30 39 1029.5 0 22.3 27.9 44.7 117.3 114.4 394.7
07/05 21:50 16.1 70 9.59 10.6 30 35 1029.4 0 21.6 27.4 43.3 113.7 109.9 378.7
07/05 21:40 16 69 9.4 10.3 26 32 1029.4 0 21.2 27.2 42.6 111.8 107.5 370.3
07/05 21:30 15.9 67 9.07 9.8 28 37 1029.4 0 20.5 26.6 41.3 108.4 103.2 355.5
07/05 21:20 16.2 62 8.55 8.9 30 33 1029.4 0 19.3 25.7 39.1 102.5 96.1 330.4
07/05 21:10 16.4 59 8.23 8.4 30 35 1029.3 0 18.7 25.2 37.8 98.9 91.7 315.2
07/05 21:00 16.7 58 8.24 8.4 28 39 1029.2 0 18.7 25.1 37.7 98.6 91.5 314.5
07/05 20:50 16.8 58 8.29 8.5 24 32 1029.2 0 18.8 25.1 37.8 99.0 92.0 316.3
07/05 20:40 17 56 8.1 8.2 26 37 1029.1 0 18.4 24.8 37.0 96.8 89.4 307.1
07/05 20:30 17.2 55 8.05 8.1 28 35 1029.1 0 18.2 24.7 36.7 96.0 88.5 304.1
07/05 20:20 17.2 55 8.05 8.1 28 33 1029.2 0 18.2 24.7 36.7 96.0 88.5 304.2
07/05 20:10 17.2 55 8.05 8.1 26 33 1029.1 0 18.2 24.7 36.7 96.0 88.5 304.1
07/05 20:00 17.2 55 8.05 8.1 28 35 1029 0 18.2 24.7 36.7 96.0 88.5 304.1
07/05 19:50 17.3 54 7.95 7.9 26 33 1029 0 18.0 24.5 36.3 94.9 87.2 299.4
07/05 19:40 17.3 55 8.1 8.2 26 30 1028.9 0 18.3 24.7 36.9 96.4 89.0 305.9
07/05 19:30 17.2 55 8.05 8.1 26 39 1028.8 0 18.2 24.6 36.7 96.0 88.5 304.1
07/05 19:20 16.8 57 8.15 8.2 22 26 1029 0 18.5 24.9 37.3 97.5 90.2 310.0
07/05 19:10 16.3 59 8.19 8.3 20 26 1029 0 18.6 25.1 37.7 98.5 91.3 313.8
07/05 19:00 16.3 60 8.32 8.5 20 28 1029 0 18.9 25.3 38.2 99.9 93.0 319.6
07/05 18:50 16.3 60 8.32 8.5 17 22 1028.9 0 18.9 25.3 38.2 99.9 92.9 319.5
07/05 18:40 16.3 60 8.32 8.5 19 26 1028.9 0 18.9 25.3 38.2 99.9 92.9 319.5
07/05 18:30 16.6 60 8.48 8.8 19 24 1028.8 0 19.2 25.5 38.6 101.2 94.6 325.5
07/05 18:20 16.7 60 8.53 8.9 19 22 1028.7 0 19.3 25.5 38.8 101.5 95.1 327.3
07/05 18:10 16.8 60 8.58 9 20 28 1028.6 0 19.4 25.6 38.9 101.9 95.6 329.1
07/05 18:00 16.8 61 8.72 9.2 20 28 1028.6 0 19.7 25.8 39.5 103.4 97.4 335.4
07/05 17:50 17 61 8.83 9.4 22 26 1028.6 0 19.9 25.9 39.8 104.3 98.6 339.5
07/05 17:40 17.1 63 9.17 10 20 26 1028.6 0 20.6 26.4 41.1 107.7 102.9 354.4
07/05 17:30 17.1 65 9.46 10.5 17 26 1028.6 0 21.2 26.9 42.2 110.8 106.7 367.7
07/05 17:20 17.6 65 9.75 10.9 19 22 1028.6 0 21.8 27.2 43.1 113.2 109.8 378.7
07/05 17:10 17.7 61 9.2 10.1 19 20 1028.6 0 20.7 26.3 40.9 107.2 102.5 353.1
07/05 17:00 18.1 58 8.96 9.7 19 26 1028.6 0 20.1 25.8 39.8 104.2 98.9 340.6

Last Refresh: 08-May-2026 11:05:13

Bureau of Meteorology